• Join FlightAware (Why Join?)
  • Login
  • US Flag 
11:20AM EDT


 

Airport Tracker/Info


-or-


 

Live Flight TrackerFlight Track Log ✈ TPA724 ✈ 27-Jul-2013 ✈ SKRG / MDE - KMIA

Flight Track Log - Related Links

Times and Time Zones

All times are in EDT time to prevent confusion due to time zone crossing. See the TPA724 flight status page for this flight to view local times or setup timezone preferences in your user account.

Time Position Orientation Groundspeed Altitude Reporting Facility
EDT Latitude Longitude Course Direction KTS MPH feet Rate Location/Type
11:21PM 7.2990 -75.4890 350° North 449 517 23,400  Level FlightAware
11:21PM 7.3700 -75.5020 350° North 452 520 24,100 1,080 Climbing FlightAware
11:22PM 7.4620 -75.5180 350° North 458 527 24,900 960 Climbing FlightAware
11:23PM 7.5340 -75.5300 351° North 464 534 25,400 960 Climbing FlightAware
11:23PM 7.6340 -75.5480 350° North 468 539 26,200 960 Climbing FlightAware
11:24PM 7.7230 -75.5640 350° North 471 542 26,900 660 Climbing FlightAware
11:25PM 7.8270 -75.5820 350° North 474 545 27,300 660 Climbing FlightAware
11:26PM 7.9790 -75.6090 350° North 474 545 28,300 960 Climbing FlightAware
11:27PM 8.0740 -75.6260 350° North 486 559 29,100 1,020 Climbing FlightAware
11:28PM 8.2010 -75.6480 350° North 488 562 29,900 780 Climbing FlightAware
11:28PM 8.2910 -75.6640 350° North 488 562 30,400 300 Climbing FlightAware
11:29PM 8.3840 -75.6810 350° North 488 562 30,400  Level FlightAware
11:30PM 8.4530 -75.6930 350° North 488 562 30,400  Level FlightAware
11:31PM 8.6120 -75.7210 350° North 488 562 30,400  Level FlightAware
11:32PM 8.6800 -75.7340 349° North 488 562 30,400  Level FlightAware
11:33PM 8.7710 -75.7500 350° North 488 562 30,400  Level FlightAware
11:33PM 8.8160 -75.7580 350° North 488 562 30,400  Level FlightAware
11:34PM 8.9070 -75.7740 350° North 488 562 30,400  Level FlightAware
11:35PM 9.0430 -75.7980 350° North 488 562 30,400 2,940 Level FlightAware
11:36PM 9.2440 -75.8340 350° North 38,000 5,520 Climbing FlightAware
11:36PM 9.3270 -75.8480 351° North 446 513 38,000  Level FlightAware
11:37PM 9.4200 -75.8650 350° North 450 518 38,000  Level FlightAware
11:38PM 9.4890 -75.8770 350° North 447 514 38,000  Level FlightAware
11:38PM 9.5640 -75.8910 350° North 445 512 38,000  Level FlightAware
11:39PM 9.6570 -75.9070 350° North 442 509 38,000  Level FlightAware
11:40PM 9.7350 -75.9210 350° North 441 507 38,000  Level FlightAware
11:40PM 9.7980 -75.9320 350° North 441 507 38,000  Level FlightAware
11:41PM 9.8960 -75.9500 350° North 439 505 38,000  Level FlightAware
11:42PM 9.9760 -75.9640 350° North 439 505 38,000  Level FlightAware
11:42PM 10.0560 -75.9790 350° North 438 504 38,000  Level FlightAware
11:43PM 10.1460 -75.9950 350° North 438 504 38,000  Level FlightAware
11:44PM 10.2370 -76.0110 350° North 440 506 38,000  Level FlightAware
11:45PM 10.3180 -76.0260 350° North 442 509 38,000  Level FlightAware
11:45PM 10.3880 -76.0380 350° North 443 510 38,000  Level FlightAware
11:46PM 10.4700 -76.0530 350° North 443 510 38,000  Level FlightAware
11:47PM 10.5610 -76.0690 350° North 444 511 38,000  Level FlightAware
11:47PM 10.6320 -76.0820 350° North 444 511 38,000  Level FlightAware
11:48PM 10.7120 -76.0960 350° North 444 511 38,000  Level FlightAware
11:49PM 10.7980 -76.1120 350° North 446 513 38,000  Level FlightAware
11:49PM 10.8850 -76.1280 350° North 446 513 38,000  Level FlightAware
11:50PM 10.9760 -76.1440 350° North 445 512 38,000  Level FlightAware
11:51PM 11.0520 -76.1580 350° North 445 512 38,000  Level FlightAware
11:51PM 11.1170 -76.1690 351° North 445 512 38,000  Level FlightAware
11:54PM 11.3804 -76.2375 346° North  Level Estimated
11:55PM 11.5001 -76.2686 346° North  Level Estimated
11:56PM 11.6198 -76.2999 346° North  Level Estimated
11:57PM 11.7395 -76.3311 346° North  Level Estimated
11:57PM 11.8370 -76.2990 346° North 442 509 38,000  Level FlightAware
11:58PM 11.9000 -76.3110 349° North 442 509 38,000  Level FlightAware
11:59PM 11.9820 -76.3260 350° North 442 509 38,000  Level FlightAware
11:59PM 12.0440 -76.3370 350° North 442 509 38,000  Level FlightAware
12:00AM 12.1170 -76.3500 350° North 442 509 38,000  Level FlightAware
12:01AM 12.2000 -76.3650 350° North 442 509 38,000  Level FlightAware
12:01AM 12.2610 -76.3760 350° North 442 509 38,000  Level FlightAware
12:02AM 12.3230 -76.3870 350° North 442 509 38,000  Level FlightAware
12:03AM 12.4050 -76.4020 350° North 442 509 38,000  Level FlightAware
12:03AM 12.4670 -76.4130 350° North 442 509 38,000  Level FlightAware
12:04AM 12.5280 -76.4240 350° North 442 509 38,000  Level FlightAware
12:05AM 12.6100 -76.4390 350° North 442 509 38,000  Level FlightAware
12:05AM 12.6720 -76.4500 350° North 442 509 38,000  Level FlightAware
12:06AM 12.7350 -76.4620 349° North 442 509 38,000  Level FlightAware
12:07AM 12.8190 -76.4770 350° North 442 509 38,000  Level FlightAware
12:09AM 13.0399 -76.5373 345° North  Level Estimated
12:10AM 13.1593 -76.5700 345° North  Level Estimated
12:11AM 13.2786 -76.6027 345° North  Level Estimated
12:12AM 13.3980 -76.6354 345° North  Level Estimated
12:13AM 13.5174 -76.6682 345° North  Level Estimated
12:14AM 13.6368 -76.7010 345° North  Level Estimated
12:15AM 13.7561 -76.7338 345° North  Level Estimated
12:16AM 13.8755 -76.7666 345° North  Level Estimated
12:17AM 13.9948 -76.7995 345° North  Level Estimated
12:18AM 14.1142 -76.8325 345° North  Level Estimated
12:19AM 14.2335 -76.8654 345° North  Level Estimated
12:20AM 14.3529 -76.8984 345° North  Level Estimated
12:21AM 14.4722 -76.9314 345° North  Level Estimated
12:22AM 14.5915 -76.9645 345° North  Level Estimated
12:23AM 14.7109 -76.9976 345° North  Level Estimated
12:24AM 14.8302 -77.0307 345° North  Level Estimated
12:25AM 14.9495 -77.0639 345° North  Level Estimated
12:26AM 15.0688 -77.0971 345° North  Level Estimated
12:27AM 15.1881 -77.1304 345° North  Level Estimated
12:28AM 15.3074 -77.1636 345° North  Level Estimated
12:29AM 15.4267 -77.1970 345° North  Level Estimated
12:30AM 15.5460 -77.2303 345° North  Level Estimated
12:31AM 15.6653 -77.2637 345° North  Level Estimated
12:32AM 15.7846 -77.2972 345° North  Level Estimated
12:33AM 15.9039 -77.3306 345° North  Level Estimated
12:34AM 16.0231 -77.3642 345° North  Level Estimated
12:35AM 16.1424 -77.3977 345° North  Level Estimated
12:36AM 16.2617 -77.4313 345° North  Level Estimated
12:37AM 16.3809 -77.4650 345° North  Level Estimated
12:38AM 16.5002 -77.4986 345° North  Level Estimated
12:39AM 16.6194 -77.5324 345° North  Level Estimated
12:40AM 16.7387 -77.5661 345° North  Level Estimated
12:41AM 16.8579 -77.5999 345° North  Level Estimated
12:42AM 16.9771 -77.6338 345° North  Level Estimated
12:43AM 17.0963 -77.6677 345° North  Level Estimated
12:44AM 17.2156 -77.7016 345° North  Level Estimated
12:45AM 17.3348 -77.7356 345° North  Level Estimated
12:46AM 17.4540 -77.7696 345° North  Level Estimated
12:47AM 17.5732 -77.8037 345° North  Level Estimated
12:48AM 17.6924 -77.8378 345° North  Level Estimated
12:49AM 17.8116 -77.8719 345° North  Level Estimated
12:50AM 17.9308 -77.9061 345° North  Level Estimated
12:51AM 18.0499 -77.9404 345° North  Level Estimated
12:52AM 18.1691 -77.9747 345° North  Level Estimated
12:53AM 18.2883 -78.0090 345° North  Level Estimated
12:54AM 18.4074 -78.0434 345° North  Level Estimated
12:55AM 18.5266 -78.0778 345° North  Level Estimated
12:56AM 18.6457 -78.1123 345° North  Level Estimated
12:57AM 18.7649 -78.1469 345° North  Level Estimated
12:58AM 18.8840 -78.1814 345° North  Level Estimated
12:59AM 19.0031 -78.2161 345° North  Level Estimated
01:00AM 19.1223 -78.2507 345° North  Level Estimated
01:01AM 19.2414 -78.2855 345° North  Level Estimated
01:02AM 19.3605 -78.3203 345° North  Level Estimated
01:03AM 19.4796 -78.3551 345° North  Level Estimated
01:04AM 19.5987 -78.3900 345° North  Level Estimated
01:05AM 19.7178 -78.4249 345° North  Level Estimated
01:06AM 19.8368 -78.4599 345° North  Level Estimated
01:07AM 19.9559 -78.4949 345° North  Level Estimated
01:08AM 20.0750 -78.5300 345° North  Level Estimated
01:09AM 20.1940 -78.5652 345° North  Level Estimated
01:10AM 20.3131 -78.6004 345° North  Level Estimated
01:11AM 20.4321 -78.6356 344° North  Level Estimated
01:12AM 20.5512 -78.6709 344° North  Level Estimated
01:13AM 20.6702 -78.7063 344° North  Level Estimated
01:14AM 20.7892 -78.7417 344° North  Level Estimated
01:15AM 20.9083 -78.7772 344° North  Level Estimated
01:16AM 21.0273 -78.8127 344° North  Level Estimated
01:17AM 21.1463 -78.8483 344° North  Level Estimated
01:18AM 21.2653 -78.8840 344° North  Level Estimated
01:19AM 21.3843 -78.9197 344° North  Level Estimated
01:20AM 21.5032 -78.9554 344° North  Level Estimated
01:21AM 21.6222 -78.9912 344° North  Level Estimated
01:22AM 21.7412 -79.0271 344° North  Level Estimated
01:23AM 21.8601 -79.0631 344° North  Level Estimated
01:24AM 21.9791 -79.0991 344° North  Level Estimated
01:25AM 22.0896 -79.1326 344° North  Level Estimated
01:26AM 22.2002 -79.1661 344° North  Level Estimated
01:27AM 22.3107 -79.1998 344° North  Level Estimated
01:28AM 22.4213 -79.2334 344° North  Level Estimated
01:28AM 23.2433 -78.8758 344° North 468 539 38,000  Level Miami Center
01:29AM 22.5318 -79.2672 344° North  Level Estimated
01:29AM 23.3664 -78.9072 347° North 461 531 38,000  Level Miami Center
01:30AM 22.6423 -79.3009 344° North  Level Estimated
01:30AM 23.4892 -78.9342 349° North 468 539 38,000  Level Miami Center
01:31AM 22.7528 -79.3348 344° North  Level Estimated
01:31AM 23.6203 -78.9725 345° North 468 539 38,000  Level Miami Center
01:32AM 22.8634 -79.3687 344° North  Level Estimated
01:32AM 23.7472 -79.0064 346° North 468 539 38,000  Level Miami Center
01:33AM 22.9739 -79.4026 344° North  Level Estimated
01:33AM 23.8722 -79.0381 347° North 468 539 38,000  Level Miami Center
01:34AM 23.9969 -79.0697 347° North 470 541 38,000 -360 Level Miami Center
01:35AM 24.1264 -79.0878 353° North 459 528 37,300 -1,500 Descending Miami Center
01:36AM 24.2472 -79.1014 354° North 451 519 35,100 -2,040 Descending Miami Center
01:37AM 24.3808 -79.1219 352° North 456 525 33,200 -1,740 Descending Miami Center
01:38AM 24.5081 -79.1403 353° North 456 525 31,600 -2,220 Descending Miami Center
01:44AM 25.1430 -79.4340 353° North 16,700 -2,280 Descending FlightAware
01:45AM 25.1910 -79.4910 313° West 357 411 15,800 -1,320 Descending FlightAware
01:45AM 25.2390 -79.5480 313° West 352 405 14,800 -1,380 Descending FlightAware
01:46AM 25.2890 -79.6060 314° West 342 394 13,900 -960 Descending FlightAware
01:47AM 25.3420 -79.6710 312° West 341 392 13,300 -1,260 Descending FlightAware
01:48AM 25.3890 -79.7250 314° West 339 390 12,000 -1,440 Descending FlightAware
01:48AM 25.4240 -79.7760 307° West 319 367 11,500 -780 Descending FlightAware
01:49AM 25.4580 -79.8330 303° West 302 348 11,000 -900 Descending FlightAware
01:50AM 25.4830 -79.8930 295° West 296 341 10,200 -1,140 Descending FlightAware
01:50AM 25.5000 -79.9330 295° West 294 338 9,700 -1,020 Descending FlightAware
01:50AM 25.5150 -79.9690 295° West 289 333 9,300 -960 Descending FlightAware
01:51AM 25.5250 -79.9930 295° West 286 329 9,000 -1,260 Descending FlightAware
01:51AM 25.5400 -80.0280 295° West 287 330 8,400 -1,200 Descending FlightAware
01:52AM 25.5570 -80.0680 295° West 283 326 7,900 -1,080 Descending FlightAware
01:52AM 25.5720 -80.1030 295° West 283 326 7,400 -780 Descending FlightAware
01:53AM 25.5880 -80.1430 294° West 272 313 7,200 -480 Descending FlightAware
01:53AM 25.6010 -80.1730 296° West 256 295 7,000 -540 Descending FlightAware
01:54AM 25.6150 -80.2090 293° West 246 283 6,700 -840 Descending FlightAware
01:54AM 25.6280 -80.2380 296° West 245 282 6,300 -720 Descending FlightAware
01:54AM 25.6420 -80.2710 295° West 231 266 6,100 -720 Descending FlightAware
01:55AM 25.6550 -80.3000 296° West 214 246 5,600 -840 Descending FlightAware
01:55AM 25.6690 -80.3300 297° West 199 229 5,300 -720 Descending FlightAware
01:56AM 25.6740 -80.3460 289° West 198 228 5,000 -1,020 Descending FlightAware
01:56AM 25.6770 -80.3840 275° West 195 224 4,400 -1,020 Descending FlightAware
01:57AM 25.6790 -80.4050 276° West 197 227 4,100 -960 Descending FlightAware
01:57AM 25.6820 -80.4330 277° West 195 224 3,600 -960 Descending FlightAware
01:58AM 25.6850 -80.4540 279° West 195 224 3,300 -900 Descending FlightAware
01:58AM 25.6970 -80.4660 318° Northwest 194 223 3,000 -600 Descending FlightAware
01:58AM 25.7220 -80.4700 352° North 197 227 2,900 -300 Descending FlightAware
01:59AM 25.7440 -80.4710 358° North 180 207 2,800 -840 Descending FlightAware
01:59AM 25.7660 -80.4640 16° North 195 224 2,200 -1,200 Descending FlightAware
01:59AM 25.7750 -80.4510 52° Northeast 196 226 2,000 -840 Descending FlightAware
02:00AM 25.7800 -80.4400 63° Northeast 189 217 1,800 -660 Descending FlightAware
02:00AM 25.7820 -80.4250 82° East 184 212 1,700 -600 Descending FlightAware
02:00AM 25.7830 -80.3930 88° East 177 204 1,300 -840 Descending FlightAware
02:01AM 25.7840 -80.3720 87° East 161 185 900 -840 Descending FlightAware
02:01AM 25.7840 -80.3550 90° East 153 176 700 -480 Descending FlightAware
02:02AM 25.7850 -80.3220 88° East 152 175 400 -420 Descending FlightAware
02:02AM 25.7860 -80.3050 86° East 140 161 -1,200 Descending FlightAware
02:03AM 25.7870 -80.2890 86° East 33 38  Level FlightAware
02:03AM 25.7870 -80.2880 90° East 29 33  Level FlightAware
02:03AM 25.7880 -80.2870 42° Northeast 34 39  Level FlightAware
02:04AM 25.7890 -80.2870 360° North 22 25  Level FlightAware
02:04AM 25.7900 -80.2870 360° North 24 28  Level FlightAware
02:05AM 25.7890 -80.2890 241° Southwest 32 37  Level FlightAware
02:05AM 25.7890 -80.2910 270° West 17 20  Level FlightAware
02:05AM 25.7890 -80.2930 270° West 21 24  Level FlightAware
02:06AM 25.7890 -80.2970 270° West 18 21  Level FlightAware
02:06AM 25.7890 -80.2990 270° West 22 25  Level FlightAware
02:07AM 25.7890 -80.3020 270° West 21 24  Level FlightAware
02:07AM 25.7890 -80.3040 270° West 18 21  Level FlightAware
02:08AM 25.7890 -80.3060 270° West 17 20  Level FlightAware
02:08AM 25.7900 -80.3060 360° North 20 23  Level FlightAware
02:11AM 25.7833 -80.2833 77° East  Level FlightAware Approximate
02:12AM 25.7954 -80.2901 77° East  Level Estimated
02:13AM 25.7954 -80.2901 77° East  Level Estimated
02:14AM 25.7954 -80.2901 77° East  Level Estimated
02:15AM 25.7954 -80.2901 77° East  Level Estimated
02:16AM 25.7954 -80.2901 77° East  Level Estimated
02:17AM 25.7954 -80.2901 77° East  Level Estimated
02:18AM 25.7954 -80.2901 77° East  Level Estimated
02:19AM 25.7954 -80.2901 77° East  Level Estimated
02:20AM 25.7954 -80.2901 77° East  Level Estimated
02:21AM 25.7954 -80.2901 77° East  Level Estimated